createdAt,value
2023-05-05T00:00:29.804Z,57.68
2023-05-05T00:01:29.969Z,57.37
2023-05-05T00:02:29.862Z,57.68
2023-05-05T00:03:29.845Z,57.81
2023-05-05T00:04:29.755Z,58.41
2023-05-05T00:05:29.764Z,58.21
2023-05-05T00:06:29.693Z,58.41
2023-05-05T00:07:29.724Z,58.31
2023-05-05T00:08:29.713Z,59.22
2023-05-05T00:09:29.725Z,59.11
2023-05-05T00:10:29.665Z,59.24
2023-05-05T00:11:29.628Z,59.64
2023-05-05T00:12:29.659Z,59.75
2023-05-05T00:13:29.630Z,60.28
2023-05-05T00:14:29.638Z,60.48
2023-05-05T00:15:29.634Z,60.78
2023-05-05T00:16:29.641Z,60.17
2023-05-05T00:17:29.590Z,60.38
2023-05-05T00:18:29.601Z,61.89
2023-05-05T00:19:29.567Z,61.82
2023-05-05T00:20:29.544Z,61.82
2023-05-05T00:21:29.499Z,61.41
2023-05-05T00:22:29.512Z,61.21
2023-05-05T00:23:29.462Z,61.52
2023-05-05T00:24:29.472Z,61.21
2023-05-05T00:25:29.482Z,60.91
2023-05-05T00:26:29.434Z,61.72
2023-05-05T00:27:29.436Z,60.28
2023-05-05T00:28:29.419Z,60.08
2023-05-05T00:29:29.409Z,60.78
2023-05-05T00:30:29.430Z,59.88
2023-05-05T00:31:29.368Z,60.17
2023-05-05T00:32:29.393Z,59.95
2023-05-05T00:33:29.358Z,59.44
2023-05-05T00:34:29.380Z,60.65
2023-05-05T00:35:29.326Z,59.95
2023-05-05T00:36:29.356Z,60.15
2023-05-05T00:37:29.287Z,59.84
2023-05-05T00:38:29.285Z,60.25
2023-05-05T00:39:29.258Z,60.15
2023-05-05T00:40:29.277Z,60.55
2023-05-05T00:41:29.258Z,61.05
2023-05-05T00:42:29.239Z,60.55
2023-05-05T00:43:29.200Z,61.49
2023-05-05T00:44:29.217Z,61.59
2023-05-05T00:45:29.184Z,61.08
2023-05-05T00:46:29.260Z,61.18
2023-05-05T00:47:29.196Z,61.39
2023-05-05T00:48:29.133Z,61.92
2023-05-05T00:49:29.179Z,62.22
2023-05-05T00:50:29.162Z,63.13
2023-05-05T00:51:29.096Z,63.33
2023-05-05T00:52:29.072Z,63.33
2023-05-05T00:53:29.119Z,63.33
2023-05-05T00:54:29.069Z,63.26
2023-05-05T00:55:29.122Z,63.36
2023-05-05T00:56:29.090Z,63.96
2023-05-05T00:57:29.092Z,63.96
2023-05-05T00:58:28.991Z,63.46
2023-05-05T00:59:29.009Z,64.27
2023-05-05T01:00:28.963Z,64.17
2023-05-05T01:01:29.006Z,64.58
2023-05-05T01:02:28.995Z,64.90
2023-05-05T01:03:28.968Z,65.01
2023-05-05T01:04:28.928Z,64.61
2023-05-05T01:05:28.915Z,65.11
2023-05-05T01:06:28.906Z,64.70
2023-05-05T01:07:28.882Z,64.81
2023-05-05T01:08:28.871Z,65.14
2023-05-05T01:09:28.852Z,66.15
2023-05-05T01:10:28.860Z,66.05
2023-05-05T01:11:28.847Z,66.45
2023-05-05T01:12:28.839Z,66.48
2023-05-05T01:13:28.823Z,66.78
2023-05-05T01:14:28.798Z,66.99
2023-05-05T01:15:28.775Z,67.49
2023-05-05T01:16:28.808Z,67.19
2023-05-05T01:17:28.871Z,67.39
2023-05-05T01:18:28.743Z,67.39
2023-05-05T01:19:28.738Z,67.39
2023-05-05T01:20:28.707Z,67.19
2023-05-05T01:21:28.682Z,67.09
2023-05-05T01:22:28.664Z,67.69
2023-05-05T01:23:28.684Z,67.72
2023-05-05T01:24:28.660Z,68.23
2023-05-05T01:25:28.655Z,68.33
2023-05-05T01:26:28.652Z,68.84
2023-05-05T01:27:28.601Z,69.65
2023-05-05T01:28:28.597Z,69.58
2023-05-05T01:29:28.587Z,69.78
2023-05-05T01:30:28.557Z,70.59
2023-05-05T01:31:28.558Z,70.69
2023-05-05T01:32:28.635Z,70.79
2023-05-05T01:33:28.543Z,71.50
2023-05-05T01:34:28.526Z,71.30
2023-05-05T01:35:28.537Z,71.09
2023-05-05T01:36:28.497Z,71.40
2023-05-05T01:37:28.476Z,71.30
2023-05-05T01:38:28.465Z,71.60
2023-05-05T01:39:28.482Z,71.70
2023-05-05T01:40:28.472Z,72.11
2023-05-05T01:41:28.447Z,71.80
2023-05-05T01:42:28.402Z,71.80
2023-05-05T01:43:28.424Z,72.04
2023-05-05T01:44:28.366Z,72.61
2023-05-05T01:45:28.479Z,72.44
2023-05-05T01:46:28.371Z,72.92
2023-05-05T01:47:28.383Z,73.02
2023-05-05T01:48:28.321Z,72.92
2023-05-05T01:49:28.315Z,72.92
2023-05-05T01:50:28.309Z,73.76
2023-05-05T01:51:28.332Z,73.76
2023-05-05T01:52:28.258Z,73.86
2023-05-05T01:53:28.252Z,74.20
2023-05-05T01:54:28.256Z,74.30
2023-05-05T01:55:28.246Z,74.81
2023-05-05T01:56:28.240Z,74.81
2023-05-05T01:57:28.238Z,75.01
2023-05-05T01:58:28.197Z,75.62
2023-05-05T01:59:28.170Z,75.76
2023-05-05T02:00:28.174Z,75.42
2023-05-05T02:01:28.195Z,75.72
2023-05-05T02:02:28.235Z,76.06
2023-05-05T02:03:28.127Z,75.85
2023-05-05T02:04:28.125Z,76.26
2023-05-05T02:05:28.076Z,76.26
2023-05-05T02:06:28.082Z,76.16
2023-05-05T02:07:28.097Z,76.36
2023-05-05T02:08:28.040Z,76.87
2023-05-05T02:09:28.039Z,77.17
2023-05-05T02:10:28.014Z,77.37
2023-05-05T02:11:28.003Z,77.17
2023-05-05T02:12:27.979Z,77.07
2023-05-05T02:13:28.158Z,77.28
2023-05-05T02:14:27.952Z,77.82
2023-05-05T02:15:27.997Z,77.41
2023-05-05T02:16:27.975Z,77.72
2023-05-05T02:17:27.946Z,77.82
2023-05-05T02:18:27.907Z,78.33
2023-05-05T02:19:27.900Z,78.36
2023-05-05T02:20:27.905Z,78.97
2023-05-05T02:21:27.868Z,78.77
2023-05-05T02:22:27.988Z,78.97
2023-05-05T02:23:27.858Z,79.27
2023-05-05T02:24:27.832Z,79.51
2023-05-05T02:25:27.843Z,79.72
2023-05-05T02:26:27.813Z,79.82
2023-05-05T02:27:27.778Z,80.43
2023-05-05T02:28:27.798Z,80.32
2023-05-05T02:29:27.918Z,80.32
2023-05-05T02:30:27.741Z,80.53
2023-05-05T02:31:27.822Z,81.13
2023-05-05T02:32:27.778Z,81.34
2023-05-05T02:33:27.748Z,81.64
2023-05-05T02:34:27.751Z,81.64
2023-05-05T02:35:27.702Z,81.74
2023-05-05T02:36:27.832Z,81.74
2023-05-05T02:37:27.733Z,81.64
2023-05-05T02:38:27.638Z,81.71
2023-05-05T02:39:27.635Z,81.91
2023-05-05T02:40:27.622Z,81.71
2023-05-05T02:41:27.609Z,81.71
2023-05-05T02:42:27.599Z,81.71
2023-05-05T02:43:27.603Z,81.46
2023-05-05T02:44:27.591Z,81.67
2023-05-05T02:45:27.562Z,81.57
2023-05-05T02:46:27.564Z,81.57
2023-05-05T02:47:27.599Z,81.87
2023-05-05T02:48:27.500Z,81.87
2023-05-05T02:49:27.512Z,82.28
2023-05-05T02:50:27.498Z,82.17
2023-05-05T02:51:27.470Z,82.44
2023-05-05T02:52:27.459Z,82.38
2023-05-05T02:53:27.462Z,82.64
2023-05-05T02:54:27.436Z,82.64
2023-05-05T02:55:27.451Z,82.64
2023-05-05T02:56:27.404Z,82.95
2023-05-05T02:57:27.385Z,83.15
2023-05-05T02:58:27.378Z,83.15
2023-05-05T02:59:27.358Z,83.04
2023-05-05T03:00:27.364Z,83.65
2023-05-05T03:01:27.380Z,83.41
2023-05-05T03:02:27.413Z,83.01
2023-05-05T03:03:27.385Z,83.11
2023-05-05T03:04:27.292Z,83.61
2023-05-05T03:05:27.363Z,83.51
2023-05-05T03:06:27.272Z,83.61
2023-05-05T03:07:27.251Z,83.37
2023-05-05T03:08:27.219Z,82.97
2023-05-05T03:09:27.304Z,82.46
2023-05-05T03:10:27.218Z,82.36
2023-05-05T03:11:27.217Z,82.56
2023-05-05T03:12:27.185Z,82.90
2023-05-05T03:13:27.245Z,83.21
2023-05-05T03:14:27.150Z,83.31
2023-05-05T03:15:27.207Z,83.86
2023-05-05T03:16:27.172Z,84.06
2023-05-05T03:17:27.106Z,84.16
2023-05-05T03:18:27.095Z,84.27
2023-05-05T03:19:27.095Z,84.47
2023-05-05T03:20:27.084Z,84.91
2023-05-05T03:21:27.089Z,85.11
2023-05-05T03:22:27.069Z,85.11
2023-05-05T03:23:27.038Z,85.42
2023-05-05T03:24:27.030Z,85.36
2023-05-05T03:25:26.987Z,85.66
2023-05-05T03:26:26.976Z,85.80
2023-05-05T03:27:27.087Z,86.00
2023-05-05T03:28:26.968Z,86.82
2023-05-05T03:29:26.973Z,87.22
2023-05-05T03:30:26.932Z,87.63
2023-05-05T03:31:26.949Z,87.87
2023-05-05T03:32:26.956Z,87.77
2023-05-05T03:33:26.882Z,87.87
2023-05-05T03:34:26.915Z,88.58
2023-05-05T03:35:26.867Z,88.58
2023-05-05T03:36:29.001Z,88.73
2023-05-05T03:37:26.873Z,88.62
2023-05-05T03:38:26.825Z,88.62
2023-05-05T03:39:26.824Z,88.82
2023-05-05T03:40:36.250Z,89.07
2023-05-05T03:41:27.823Z,88.97
2023-05-05T03:42:26.769Z,88.97
2023-05-05T03:43:26.775Z,88.97
2023-05-05T03:44:26.747Z,89.22
2023-05-05T03:45:26.717Z,89.52
2023-05-05T03:46:26.715Z,90.23
2023-05-05T03:47:26.731Z,90.23
2023-05-05T03:48:26.684Z,90.74
2023-05-05T03:49:26.700Z,90.94
2023-05-05T03:50:26.673Z,91.14
2023-05-05T03:51:26.641Z,91.14
2023-05-05T03:52:26.610Z,91.09
2023-05-05T03:53:26.652Z,91.19
2023-05-05T03:54:26.618Z,91.39
2023-05-05T03:55:26.588Z,91.60
2023-05-05T03:56:26.577Z,91.49
2023-05-05T03:57:27.583Z,91.39
2023-05-05T03:58:26.627Z,91.60
2023-05-05T03:59:26.556Z,91.90
2023-05-05T04:00:26.533Z,91.90
2023-05-05T04:01:26.529Z,92.14
2023-05-05T04:02:26.592Z,92.04
2023-05-05T04:03:26.566Z,92.35
2023-05-05T04:04:26.553Z,92.45
2023-05-05T04:05:26.502Z,92.65
2023-05-05T04:06:26.465Z,92.96
2023-05-05T04:07:26.441Z,93.37
2023-05-05T04:08:26.460Z,93.37
2023-05-05T04:09:26.398Z,93.77
2023-05-05T04:10:26.451Z,94.12
2023-05-05T04:11:26.393Z,93.92
2023-05-05T04:12:26.368Z,93.71
2023-05-05T04:13:26.350Z,94.12
2023-05-05T04:14:26.340Z,94.02
2023-05-05T04:15:26.323Z,94.02
2023-05-05T04:16:26.457Z,94.02
2023-05-05T04:17:26.388Z,94.23
2023-05-05T04:18:26.273Z,94.43
2023-05-05T04:19:26.260Z,94.23
2023-05-05T04:20:26.263Z,94.32
2023-05-05T04:21:26.283Z,94.53
2023-05-05T04:22:26.239Z,94.63
2023-05-05T04:23:26.235Z,94.84
2023-05-05T04:24:26.221Z,95.14
2023-05-05T04:25:26.203Z,95.65
2023-05-05T04:26:26.199Z,95.24
2023-05-05T04:27:26.241Z,95.45
2023-05-05T04:28:26.164Z,95.65
2023-05-05T04:29:26.126Z,95.54
2023-05-05T04:30:26.170Z,95.59
2023-05-05T04:31:26.126Z,95.54
2023-05-05T04:32:26.145Z,95.79
2023-05-05T04:33:26.099Z,95.49
2023-05-05T04:34:26.068Z,95.59
2023-05-05T04:35:26.035Z,95.65
2023-05-05T04:36:26.062Z,95.75
2023-05-05T04:37:26.053Z,95.65
2023-05-05T04:38:26.043Z,95.75
2023-05-05T04:39:26.029Z,95.65
2023-05-05T04:40:25.996Z,95.54
2023-05-05T04:41:26.814Z,95.75
2023-05-05T04:42:25.970Z,95.75
2023-05-05T04:43:25.953Z,95.61
2023-05-05T04:44:26.000Z,95.50
2023-05-05T04:45:25.907Z,95.50
2023-05-05T04:46:25.927Z,95.40
2023-05-05T04:47:25.912Z,95.30
2023-05-05T04:48:25.872Z,95.20
2023-05-05T04:49:25.886Z,95.25
2023-05-05T04:50:25.831Z,95.05
2023-05-05T04:51:25.985Z,94.70
2023-05-05T04:52:25.821Z,94.60
2023-05-05T04:53:25.865Z,94.50
2023-05-05T04:54:25.804Z,94.29
2023-05-05T04:55:25.768Z,94.05
2023-05-05T04:56:25.763Z,93.95
2023-05-05T04:57:25.755Z,93.84
2023-05-05T04:58:25.733Z,93.64
2023-05-05T04:59:25.706Z,93.40
2023-05-05T05:00:25.739Z,93.49
2023-05-05T05:01:25.766Z,93.40
2023-05-05T05:02:25.754Z,93.49
2023-05-05T05:03:25.779Z,93.40
2023-05-05T05:04:25.656Z,93.40
2023-05-05T05:05:25.644Z,93.40
2023-05-05T05:06:25.607Z,93.19
2023-05-05T05:07:25.601Z,92.89
2023-05-05T05:08:25.610Z,92.84
2023-05-05T05:09:25.615Z,92.84
2023-05-05T05:10:25.568Z,92.64
2023-05-05T05:11:25.580Z,92.44
2023-05-05T05:12:25.558Z,92.44
2023-05-05T05:13:25.634Z,92.19
2023-05-05T05:14:25.569Z,92.24
2023-05-05T05:15:25.559Z,92.09
2023-05-05T05:16:25.551Z,92.29
2023-05-05T05:17:25.495Z,92.19
2023-05-05T05:18:25.463Z,92.09
2023-05-05T05:19:25.437Z,92.09
2023-05-05T05:20:25.448Z,91.99
2023-05-05T05:21:25.424Z,91.74
2023-05-05T05:22:25.425Z,91.34
2023-05-05T05:23:25.422Z,91.24
2023-05-05T05:24:25.417Z,91.03
2023-05-05T05:25:25.377Z,90.83
2023-05-05T05:26:25.377Z,90.69
2023-05-05T05:27:25.347Z,90.62
2023-05-05T05:28:25.343Z,90.69
2023-05-05T05:29:25.340Z,90.58
2023-05-05T05:30:25.307Z,90.58
2023-05-05T05:31:25.301Z,90.14
2023-05-05T05:32:25.330Z,89.83
2023-05-05T05:33:25.260Z,89.59
2023-05-05T05:34:25.282Z,89.08
2023-05-05T05:35:25.213Z,88.68
2023-05-05T05:36:25.216Z,88.07
2023-05-05T05:37:25.207Z,88.23
2023-05-05T05:38:25.209Z,88.23
2023-05-05T05:39:25.174Z,88.13
2023-05-05T05:40:25.169Z,87.88
2023-05-05T05:41:25.236Z,87.79
2023-05-05T05:42:25.152Z,87.48
2023-05-05T05:43:25.129Z,87.04
2023-05-05T05:44:25.148Z,87.04
2023-05-05T05:45:25.092Z,86.73
2023-05-05T05:46:25.142Z,86.63
2023-05-05T05:47:25.203Z,86.22
2023-05-05T05:48:25.072Z,86.08
2023-05-05T05:49:25.055Z,85.58
2023-05-05T05:50:25.006Z,85.48
2023-05-05T05:51:25.004Z,85.24
2023-05-05T05:52:25.008Z,84.93
2023-05-05T05:53:24.980Z,84.03
2023-05-05T05:54:24.977Z,83.72
2023-05-05T05:55:24.945Z,83.32
2023-05-05T05:56:24.930Z,83.52
2023-05-05T05:57:24.961Z,83.72
2023-05-05T05:58:24.930Z,83.52
2023-05-05T05:59:24.905Z,83.58
2023-05-05T06:00:24.920Z,83.07
2023-05-05T06:01:24.901Z,82.84
2023-05-05T06:02:24.948Z,81.62
2023-05-05T06:03:24.970Z,82.13
2023-05-05T06:04:24.868Z,82.33
2023-05-05T06:05:24.908Z,81.79
2023-05-05T06:06:24.814Z,81.68
2023-05-05T06:07:24.911Z,80.98
2023-05-05T06:08:25.227Z,81.18
2023-05-05T06:09:24.814Z,81.08
2023-05-05T06:10:27.596Z,80.88
2023-05-05T06:11:24.745Z,80.38
2023-05-05T06:12:24.728Z,80.27
2023-05-05T06:13:24.710Z,80.18
2023-05-05T06:14:24.740Z,80.27
2023-05-05T06:15:24.673Z,80.27
2023-05-05T06:16:24.862Z,78.46
2023-05-05T06:17:24.710Z,78.16
2023-05-05T06:18:24.693Z,78.52
2023-05-05T06:19:24.631Z,78.52
2023-05-05T06:20:24.624Z,78.92
2023-05-05T06:21:24.617Z,78.63
2023-05-05T06:22:24.611Z,78.02
2023-05-05T06:23:24.638Z,78.12
2023-05-05T06:24:24.616Z,77.31
2023-05-05T06:25:24.613Z,77.62
2023-05-05T06:26:24.632Z,78.32
2023-05-05T06:27:24.583Z,77.42
2023-05-05T06:28:24.544Z,77.62
2023-05-05T06:29:24.551Z,77.48
2023-05-05T06:30:24.522Z,77.28
2023-05-05T06:31:24.527Z,76.67
2023-05-05T06:32:24.548Z,77.24
2023-05-05T06:33:24.483Z,75.83
2023-05-05T06:34:24.474Z,75.93
2023-05-05T06:35:24.429Z,76.14
2023-05-05T06:36:24.519Z,75.59
2023-05-05T06:37:24.397Z,74.29
2023-05-05T06:38:24.398Z,73.14
2023-05-05T06:39:24.373Z,73.04
2023-05-05T06:40:24.366Z,73.14
2023-05-05T06:41:24.354Z,73.04
2023-05-05T06:42:24.309Z,73.24
2023-05-05T06:43:24.370Z,73.14
2023-05-05T06:44:24.298Z,73.24
2023-05-05T06:45:24.335Z,73.24
2023-05-05T06:46:24.374Z,73.14
2023-05-05T06:47:24.343Z,72.64
2023-05-05T06:48:24.270Z,72.54
2023-05-05T06:49:24.244Z,72.84
2023-05-05T06:50:24.194Z,73.35
2023-05-05T06:51:24.236Z,73.35
2023-05-05T06:52:24.259Z,72.41
2023-05-05T06:53:24.192Z,72.71
2023-05-05T06:54:24.153Z,71.40
2023-05-05T06:55:24.228Z,72.03
2023-05-05T06:56:24.118Z,71.83
2023-05-05T06:57:24.134Z,72.17
2023-05-05T06:58:24.095Z,72.84
2023-05-05T06:59:24.112Z,72.84
2023-05-05T07:00:24.086Z,72.30
2023-05-05T07:01:24.109Z,71.80
2023-05-05T07:02:26.562Z,72.10
2023-05-05T07:03:24.072Z,72.10
2023-05-05T07:04:24.013Z,71.60
2023-05-05T07:05:24.036Z,72.30
2023-05-05T07:06:23.970Z,72.10
2023-05-05T07:07:23.991Z,71.90
2023-05-05T07:08:23.952Z,72.71
2023-05-05T07:09:24.002Z,73.51
2023-05-05T07:10:23.941Z,72.41
2023-05-05T07:11:24.033Z,72.71
2023-05-05T07:12:23.896Z,73.00
2023-05-05T07:13:23.913Z,72.84
2023-05-05T07:14:24.606Z,73.44
2023-05-05T07:15:29.373Z,73.44
2023-05-05T07:16:24.896Z,73.75
2023-05-05T07:17:23.844Z,73.35
2023-05-05T07:18:23.909Z,73.65
2023-05-05T07:19:23.808Z,74.49
2023-05-05T07:20:24.273Z,74.89
2023-05-05T07:21:23.833Z,74.69
2023-05-05T07:22:23.858Z,74.79
2023-05-05T07:23:23.773Z,75.43
2023-05-05T07:24:23.740Z,75.53
2023-05-05T07:25:23.751Z,75.29
2023-05-05T07:26:23.725Z,75.29
2023-05-05T07:27:23.728Z,75.26
2023-05-05T07:28:23.698Z,74.95
2023-05-05T07:29:23.746Z,75.46
2023-05-05T07:30:23.818Z,75.15
2023-05-05T07:31:23.672Z,75.26
2023-05-05T07:32:23.746Z,74.85
2023-05-05T07:33:23.616Z,75.05
2023-05-05T07:34:23.577Z,75.86
2023-05-05T07:35:23.634Z,75.12
2023-05-05T07:36:23.662Z,74.11
2023-05-05T07:37:23.569Z,73.81
2023-05-05T07:38:23.581Z,74.72
2023-05-05T07:39:23.568Z,73.81
2023-05-05T07:40:23.554Z,73.78
2023-05-05T07:41:23.544Z,73.31
2023-05-05T07:42:23.502Z,73.38
2023-05-05T07:43:23.473Z,73.68
2023-05-05T07:44:23.469Z,73.58
2023-05-05T07:45:23.513Z,73.18
2023-05-05T07:46:23.506Z,72.97
2023-05-05T07:47:23.463Z,73.31
2023-05-05T07:48:23.469Z,73.95
2023-05-05T07:49:23.416Z,73.95
2023-05-05T07:50:23.446Z,74.35
2023-05-05T07:51:23.385Z,74.65
2023-05-05T07:52:37.023Z,74.38
2023-05-05T07:53:25.522Z,74.65
2023-05-05T07:54:23.380Z,74.75
2023-05-05T07:55:23.360Z,74.25
2023-05-05T07:56:23.341Z,74.05
2023-05-05T07:57:23.281Z,73.85
2023-05-05T07:58:23.279Z,74.41
2023-05-05T07:59:23.285Z,74.48
2023-05-05T08:00:23.271Z,73.18
2023-05-05T08:01:23.273Z,73.04
2023-05-05T08:02:23.302Z,72.13
2023-05-05T08:03:23.377Z,71.63
2023-05-05T08:04:23.205Z,72.03
2023-05-05T08:05:23.222Z,72.24
2023-05-05T08:06:23.207Z,72.30
2023-05-05T08:07:23.181Z,72.40
2023-05-05T08:08:23.167Z,73.37
2023-05-05T08:09:23.162Z,73.03
2023-05-05T08:10:23.154Z,71.33
2023-05-05T08:11:23.178Z,71.13
2023-05-05T08:12:23.170Z,70.43
2023-05-05T08:13:23.069Z,70.32
2023-05-05T08:14:23.059Z,70.93
2023-05-05T08:15:23.050Z,71.13
2023-05-05T08:16:23.291Z,69.73
2023-05-05T08:17:23.014Z,69.82
2023-05-05T08:18:22.995Z,70.50
2023-05-05T08:19:28.629Z,69.42
2023-05-05T08:20:23.979Z,69.85
2023-05-05T08:21:22.993Z,70.56
2023-05-05T08:22:23.038Z,70.66
2023-05-05T08:23:22.964Z,69.85
2023-05-05T08:24:22.930Z,69.82
2023-05-05T08:25:22.928Z,69.96
2023-05-05T08:26:22.981Z,68.65
2023-05-05T08:27:22.950Z,69.15
2023-05-05T08:28:22.990Z,68.68
2023-05-05T08:29:22.890Z,69.52
2023-05-05T08:30:23.002Z,69.32
2023-05-05T08:31:22.929Z,69.72
2023-05-05T08:32:22.816Z,69.89
2023-05-05T08:33:22.933Z,70.50
2023-05-05T08:34:22.804Z,69.35
2023-05-05T08:35:22.780Z,68.85
2023-05-05T08:36:22.778Z,69.12
2023-05-05T08:37:22.759Z,69.29
2023-05-05T08:38:22.772Z,68.08
2023-05-05T08:39:22.731Z,66.58
2023-05-05T08:40:22.803Z,66.82
2023-05-05T08:41:22.712Z,66.68
2023-05-05T08:42:35.473Z,66.28
2023-05-05T08:43:23.676Z,65.88
2023-05-05T08:44:22.677Z,65.75
2023-05-05T08:45:22.660Z,65.05
2023-05-05T08:46:22.690Z,65.88
2023-05-05T08:47:22.695Z,67.02
2023-05-05T08:48:22.615Z,67.32
2023-05-05T08:49:22.635Z,67.85
2023-05-05T08:50:22.626Z,68.76
2023-05-05T08:51:22.564Z,68.68
2023-05-05T08:52:22.559Z,69.39
2023-05-05T08:53:22.550Z,68.95
2023-05-05T08:54:22.514Z,67.55
2023-05-05T08:55:22.532Z,67.25
2023-05-05T08:56:22.489Z,66.55
2023-05-05T08:57:22.508Z,66.41
2023-05-05T08:58:22.459Z,65.98
2023-05-05T08:59:22.462Z,65.38
2023-05-05T09:00:22.513Z,65.65
2023-05-05T09:01:22.505Z,66.05
2023-05-05T09:02:22.443Z,65.48
2023-05-05T09:03:22.427Z,66.28
2023-05-05T09:04:22.386Z,66.65
2023-05-05T09:05:22.409Z,65.31
2023-05-05T09:06:22.363Z,65.48
2023-05-05T09:07:22.341Z,64.45
2023-05-05T09:08:22.318Z,64.12
2023-05-05T09:09:22.324Z,62.45
2023-05-05T09:10:22.456Z,62.78
2023-05-05T09:11:22.300Z,63.89
2023-05-05T09:12:22.301Z,65.39
2023-05-05T09:13:22.293Z,63.78
2023-05-05T09:14:22.274Z,64.15
2023-05-05T09:15:22.239Z,65.35
2023-05-05T09:16:22.276Z,64.92
2023-05-05T09:17:22.201Z,64.81
2023-05-05T09:18:22.197Z,64.39
2023-05-05T09:19:22.195Z,64.98
2023-05-05T09:20:22.210Z,63.65
2023-05-05T09:21:22.181Z,63.45
2023-05-05T09:22:22.170Z,65.12
2023-05-05T09:23:22.145Z,62.32
2023-05-05T09:24:22.112Z,62.52
2023-05-05T09:25:22.128Z,63.95
2023-05-05T09:26:22.097Z,62.15
2023-05-05T09:27:22.145Z,62.58
2023-05-05T09:28:22.104Z,63.25
2023-05-05T09:29:22.058Z,63.35
2023-05-05T09:30:22.056Z,62.98
2023-05-05T09:31:22.098Z,63.85
2023-05-05T09:32:22.106Z,63.15
2023-05-05T09:33:22.082Z,63.75
2023-05-05T09:34:21.988Z,63.95
2023-05-05T09:35:22.032Z,63.06
2023-05-05T09:36:21.967Z,62.75
2023-05-05T09:37:21.973Z,62.65
2023-05-05T09:38:21.906Z,63.56
2023-05-05T09:39:21.906Z,63.22
2023-05-05T09:40:22.053Z,62.45
2023-05-05T09:41:29.464Z,63.68
2023-05-05T09:42:21.886Z,64.22
2023-05-05T09:43:21.878Z,65.42
2023-05-05T09:44:21.845Z,66.25
2023-05-05T09:45:21.913Z,65.75
2023-05-05T09:46:21.868Z,65.65
2023-05-05T09:47:29.561Z,65.25
2023-05-05T09:48:22.844Z,65.38
2023-05-05T09:49:21.797Z,65.08
2023-05-05T09:50:21.779Z,66.31
2023-05-05T09:51:21.910Z,66.01
2023-05-05T09:52:21.747Z,67.32
2023-05-05T09:53:21.757Z,65.68
2023-05-05T09:54:21.713Z,66.78
2023-05-05T09:55:21.696Z,66.35
2023-05-05T09:56:21.763Z,65.52
2023-05-05T09:57:21.666Z,64.39
2023-05-05T09:58:21.741Z,63.39
2023-05-05T09:59:21.645Z,63.65
2023-05-05T10:00:21.673Z,63.53
2023-05-05T10:01:21.647Z,63.45
2023-05-05T10:02:21.773Z,63.45
2023-05-05T10:03:21.666Z,64.15
2023-05-05T10:04:21.611Z,64.22
2023-05-05T10:05:21.606Z,63.42
2023-05-05T10:06:21.554Z,63.02
2023-05-05T10:07:21.534Z,63.39
2023-05-05T10:08:21.518Z,63.09
2023-05-05T10:09:21.548Z,63.32
2023-05-05T10:10:21.509Z,63.42
2023-05-05T10:11:21.485Z,63.69
2023-05-05T10:12:21.486Z,62.59
2023-05-05T10:13:21.466Z,61.87
2023-05-05T10:14:21.433Z,62.56
2023-05-05T10:15:21.442Z,63.13
2023-05-05T10:16:21.455Z,60.93
2023-05-05T10:17:21.444Z,60.66
2023-05-05T10:18:21.494Z,61.07
2023-05-05T10:19:21.365Z,62.83
2023-05-05T10:20:21.392Z,61.27
2023-05-05T10:21:21.345Z,59.95
2023-05-05T10:22:21.349Z,58.33
2023-05-05T10:23:21.321Z,57.73
2023-05-05T10:24:21.344Z,57.33
2023-05-05T10:25:21.315Z,58.89
2023-05-05T10:26:21.328Z,55.91
2023-05-05T10:27:21.278Z,56.03
2023-05-05T10:28:21.262Z,57.03
2023-05-05T10:29:21.257Z,58.59
2023-05-05T10:30:21.277Z,58.00
2023-05-05T10:31:26.335Z,57.20
2023-05-05T10:32:51.176Z,59.30
2023-05-05T10:34:21.215Z,58.25
2023-05-05T10:35:21.757Z,60.82
2023-05-05T10:36:21.172Z,57.63
2023-05-05T10:37:21.162Z,59.22
2023-05-05T10:38:21.133Z,55.93
2023-05-05T10:39:21.112Z,56.46
2023-05-05T10:40:21.079Z,57.23
2023-05-05T10:41:21.082Z,56.83
2023-05-05T10:42:21.047Z,57.53
2023-05-05T10:43:21.071Z,56.68
2023-05-05T10:44:21.056Z,58.18
2023-05-05T10:45:21.074Z,57.68
2023-05-05T10:46:21.087Z,59.98
2023-05-05T10:47:21.017Z,58.48
2023-05-05T10:48:21.031Z,57.35
2023-05-05T10:49:20.976Z,57.06
2023-05-05T10:50:20.995Z,57.15
2023-05-05T10:51:30.971Z,57.46
2023-05-05T10:52:21.995Z,58.25
2023-05-05T10:53:20.917Z,56.46
2023-05-05T10:54:20.944Z,56.26
2023-05-05T10:55:20.916Z,58.55
2023-05-05T10:56:20.876Z,57.39
2023-05-05T10:57:20.898Z,57.48
2023-05-05T10:58:20.849Z,57.51
2023-05-05T10:59:20.861Z,58.41
2023-05-05T11:00:20.854Z,59.41
2023-05-05T11:01:20.889Z,59.34
2023-05-05T11:02:20.809Z,58.61
2023-05-05T11:03:20.939Z,58.24
2023-05-05T11:04:20.806Z,58.76
2023-05-05T11:05:20.781Z,60.19
2023-05-05T11:06:20.735Z,60.19
2023-05-05T11:07:20.721Z,61.19
2023-05-05T11:08:20.719Z,59.27
2023-05-05T11:09:20.755Z,59.36
2023-05-05T11:10:21.210Z,59.19
2023-05-05T11:11:20.681Z,58.76
2023-05-05T11:12:20.677Z,59.27
2023-05-05T11:13:20.703Z,59.66
2023-05-05T11:14:20.759Z,60.16
2023-05-05T11:15:20.653Z,58.47
2023-05-05T11:16:20.700Z,59.09
2023-05-05T11:17:20.605Z,59.89
2023-05-05T11:18:20.601Z,62.16
2023-05-05T11:19:20.604Z,60.16
2023-05-05T11:20:20.618Z,59.39
2023-05-05T11:21:20.541Z,60.69
2023-05-05T11:22:20.525Z,59.99
2023-05-05T11:23:20.569Z,59.99
2023-05-05T11:24:20.566Z,60.06
2023-05-05T11:25:20.537Z,59.27
2023-05-05T11:26:20.504Z,59.36
2023-05-05T11:27:20.466Z,59.39
2023-05-05T11:28:20.463Z,60.19
2023-05-05T11:29:20.432Z,59.69
2023-05-05T11:30:20.472Z,60.79
2023-05-05T11:31:20.441Z,60.42
2023-05-05T11:32:20.401Z,60.22
2023-05-05T11:33:20.442Z,61.02
2023-05-05T11:34:20.372Z,60.62
2023-05-05T11:35:20.392Z,60.62
2023-05-05T11:36:20.488Z,61.42
2023-05-05T11:37:20.326Z,61.02
2023-05-05T11:38:20.345Z,61.65
2023-05-05T11:39:20.386Z,61.98
2023-05-05T11:40:20.339Z,61.78
2023-05-05T11:41:20.336Z,62.81
2023-05-05T11:42:20.352Z,62.61
2023-05-05T11:43:20.393Z,64.22
2023-05-05T11:44:20.318Z,62.81
2023-05-05T11:45:20.255Z,63.31
2023-05-05T11:46:20.264Z,62.74
2023-05-05T11:47:20.162Z,63.64
2023-05-05T11:48:20.205Z,63.84
2023-05-05T11:49:20.264Z,64.25
2023-05-05T11:50:20.183Z,63.45
2023-05-05T11:51:20.121Z,63.95
2023-05-05T11:52:20.120Z,64.48
2023-05-05T11:53:20.090Z,64.58
2023-05-05T11:54:20.103Z,65.68
2023-05-05T11:55:20.061Z,65.98
2023-05-05T11:56:20.093Z,67.58
2023-05-05T11:57:20.118Z,65.61
2023-05-05T11:58:20.290Z,66.41
2023-05-05T11:59:20.114Z,69.46
2023-05-05T12:00:20.171Z,68.45
2023-05-05T12:01:19.985Z,68.65
2023-05-05T12:02:20.020Z,69.06
2023-05-05T12:03:20.065Z,68.18
2023-05-05T12:04:19.987Z,69.39
2023-05-05T12:05:19.926Z,70.50
2023-05-05T12:06:19.953Z,72.10
2023-05-05T12:07:19.936Z,72.90
2023-05-05T12:08:19.890Z,74.41
2023-05-05T12:09:19.884Z,72.80
2023-05-05T12:10:19.928Z,74.61
2023-05-05T12:11:19.837Z,75.42
2023-05-05T12:12:19.835Z,75.92
2023-05-05T12:13:20.151Z,75.82
2023-05-05T12:14:19.843Z,76.65
2023-05-05T12:15:19.809Z,76.05
2023-05-05T12:16:19.827Z,76.29
2023-05-05T12:17:19.788Z,78.03
2023-05-05T12:18:19.797Z,80.58
2023-05-05T12:19:19.746Z,84.05
2023-05-05T12:20:19.778Z,86.35
2023-05-05T12:21:19.828Z,87.40
2023-05-05T12:22:19.724Z,89.19
2023-05-05T12:23:19.748Z,89.43
2023-05-05T12:24:19.699Z,90.55
2023-05-05T12:25:19.656Z,90.69
2023-05-05T12:26:19.665Z,89.78
2023-05-05T12:27:19.645Z,90.39
2023-05-05T12:28:19.617Z,89.68
2023-05-05T12:29:19.604Z,89.17
2023-05-05T12:30:19.853Z,87.26
2023-05-05T12:31:19.693Z,85.38
2023-05-05T12:32:19.621Z,85.28
2023-05-05T12:33:19.578Z,85.84
2023-05-05T12:34:19.527Z,86.55
2023-05-05T12:35:19.567Z,86.41
2023-05-05T12:36:19.512Z,86.91
2023-05-05T12:37:19.551Z,87.38
2023-05-05T12:38:19.509Z,87.63
2023-05-05T12:39:19.507Z,88.14
2023-05-05T12:40:19.496Z,89.41
2023-05-05T12:41:19.461Z,87.60
2023-05-05T12:42:19.431Z,88.20
2023-05-05T12:43:19.465Z,87.45
2023-05-05T12:44:19.450Z,89.63
2023-05-05T12:45:19.428Z,89.39
2023-05-05T12:46:19.427Z,84.55
2023-05-05T12:47:19.398Z,85.62
2023-05-05T12:48:19.356Z,83.61
2023-05-05T12:49:19.364Z,81.49
2023-05-05T12:50:19.314Z,81.65
2023-05-05T12:51:19.309Z,81.46
2023-05-05T12:52:19.429Z,80.95
2023-05-05T12:53:19.270Z,78.84